createdAt,value
2018-09-30T00:02:11.409Z,8.00
2018-09-30T00:04:39.604Z,7.67
2018-09-30T00:07:07.827Z,8.77
2018-09-30T00:09:36.052Z,8.53
2018-09-30T00:12:04.249Z,7.40
2018-09-30T00:14:32.442Z,7.50
2018-09-30T00:17:00.632Z,8.30
2018-09-30T00:19:28.856Z,8.43
2018-09-30T00:21:57.005Z,7.93
2018-09-30T00:24:30.464Z,8.30
2018-09-30T00:27:00.071Z,7.97
2018-09-30T00:29:29.571Z,8.40
2018-09-30T00:31:58.512Z,7.50
2018-09-30T00:34:27.977Z,8.20
2018-09-30T00:36:59.261Z,7.43
2018-09-30T00:39:27.913Z,8.10
2018-09-30T00:41:56.162Z,7.90
2018-09-30T00:44:24.672Z,7.73
2018-09-30T00:46:53.327Z,8.07
2018-09-30T00:49:21.537Z,8.57
2018-09-30T00:51:49.747Z,8.07
2018-09-30T00:54:17.947Z,8.20
2018-09-30T00:56:46.159Z,8.37
2018-09-30T00:59:14.438Z,7.93
2018-09-30T01:01:42.692Z,7.73
2018-09-30T01:04:10.928Z,7.53
2018-09-30T01:06:39.132Z,7.30
2018-09-30T01:09:10.860Z,7.30
2018-09-30T01:11:39.051Z,7.20
2018-09-30T01:14:07.516Z,7.57
2018-09-30T01:16:35.852Z,7.90
2018-09-30T01:19:04.035Z,7.87
2018-09-30T01:21:32.292Z,7.43
2018-09-30T01:24:00.493Z,7.17
2018-09-30T01:26:28.703Z,8.33
2018-09-30T01:28:56.923Z,7.17
2018-09-30T01:31:25.307Z,7.47
2018-09-30T01:33:54.698Z,7.97
2018-09-30T01:36:22.892Z,7.70
2018-09-30T01:38:51.083Z,7.30
2018-09-30T01:41:19.298Z,7.87
2018-09-30T01:43:47.514Z,7.33
2018-09-30T01:46:15.692Z,7.83
2018-09-30T01:48:43.883Z,8.20
2018-09-30T01:51:12.114Z,7.70
2018-09-30T01:53:40.318Z,7.10
2018-09-30T01:56:08.571Z,7.73
2018-09-30T01:58:36.771Z,7.10
2018-09-30T02:01:04.946Z,9.00
2018-09-30T02:03:33.152Z,10.43
2018-09-30T02:06:01.339Z,8.40
2018-09-30T02:08:29.535Z,8.10
2018-09-30T02:10:57.732Z,8.00
2018-09-30T02:13:25.922Z,7.20
2018-09-30T02:15:54.107Z,7.80
2018-09-30T02:18:22.287Z,7.77
2018-09-30T02:20:50.483Z,8.03
2018-09-30T02:23:18.665Z,8.40
2018-09-30T02:25:46.866Z,8.30
2018-09-30T02:28:15.047Z,8.27
2018-09-30T02:30:43.238Z,8.17
2018-09-30T02:33:11.436Z,7.80
2018-09-30T02:35:39.630Z,7.60
2018-09-30T02:38:07.846Z,8.50
2018-09-30T02:40:36.064Z,8.43
2018-09-30T02:43:04.252Z,8.03
2018-09-30T02:45:32.445Z,7.70
2018-09-30T02:48:00.631Z,7.67
2018-09-30T02:50:28.816Z,8.37
2018-09-30T02:52:57.173Z,7.30
2018-09-30T02:55:25.381Z,8.13
2018-09-30T02:57:53.563Z,7.60
2018-09-30T03:00:21.759Z,7.27
2018-09-30T03:02:49.953Z,8.60
2018-09-30T03:05:18.192Z,8.03
2018-09-30T03:07:51.724Z,7.60
2018-09-30T03:10:19.895Z,8.43
2018-09-30T03:12:48.104Z,8.30
2018-09-30T03:15:16.279Z,7.80
2018-09-30T03:17:44.513Z,8.00
2018-09-30T03:20:12.687Z,8.10
2018-09-30T03:22:40.884Z,7.70
2018-09-30T03:25:09.080Z,7.50
2018-09-30T03:27:37.281Z,8.40
2018-09-30T03:30:05.460Z,8.10
2018-09-30T03:32:33.650Z,9.10
2018-09-30T03:35:01.838Z,10.70
2018-09-30T03:37:30.012Z,9.10
2018-09-30T03:39:58.232Z,8.83
2018-09-30T03:42:26.399Z,7.80
2018-09-30T03:44:54.643Z,8.17
2018-09-30T03:47:22.827Z,7.67
2018-09-30T03:49:51.028Z,8.03
2018-09-30T03:52:19.210Z,8.00
2018-09-30T03:54:47.380Z,7.77
2018-09-30T03:57:15.563Z,7.97
2018-09-30T03:59:43.755Z,8.07
2018-09-30T04:02:11.946Z,7.60
2018-09-30T04:04:40.136Z,7.90
2018-09-30T04:07:08.335Z,8.43
2018-09-30T04:09:36.543Z,7.10
2018-09-30T04:12:04.696Z,7.40
2018-09-30T04:14:32.884Z,7.33
2018-09-30T04:17:01.166Z,7.97
2018-09-30T04:19:29.268Z,7.50
2018-09-30T04:21:57.516Z,7.63
2018-09-30T04:24:25.791Z,7.53
2018-09-30T04:26:53.975Z,7.80
2018-09-30T04:29:22.151Z,8.30
2018-09-30T04:31:50.328Z,7.77
2018-09-30T04:34:18.584Z,8.00
2018-09-30T04:36:46.785Z,8.10
2018-09-30T04:39:15.008Z,8.50
2018-09-30T04:41:43.322Z,7.60
2018-09-30T04:44:11.516Z,8.07
2018-09-30T04:46:39.707Z,7.90
2018-09-30T04:49:07.966Z,8.20
2018-09-30T04:51:36.171Z,7.47
2018-09-30T04:54:04.534Z,7.53
2018-09-30T04:56:32.766Z,7.70
2018-09-30T04:59:00.966Z,7.60
2018-09-30T05:01:29.158Z,7.33
2018-09-30T05:03:57.464Z,8.03
2018-09-30T05:06:25.640Z,8.23
2018-09-30T05:08:53.845Z,9.80
2018-09-30T05:11:22.031Z,9.33
2018-09-30T05:13:50.218Z,9.27
2018-09-30T05:16:18.445Z,9.00
2018-09-30T05:18:46.647Z,8.40
2018-09-30T05:21:14.831Z,7.70
2018-09-30T05:23:43.028Z,8.33
2018-09-30T05:26:11.224Z,7.87
2018-09-30T05:28:39.408Z,7.73
2018-09-30T05:31:07.747Z,7.50
2018-09-30T05:33:35.997Z,8.53
2018-09-30T05:36:04.192Z,7.63
2018-09-30T05:38:32.372Z,8.17
2018-09-30T05:41:00.698Z,7.30
2018-09-30T05:43:29.864Z,8.10
2018-09-30T05:45:58.688Z,7.33
2018-09-30T05:48:27.009Z,7.90
2018-09-30T05:50:55.198Z,7.43
2018-09-30T05:53:23.419Z,7.53
2018-09-30T05:55:51.602Z,7.50
2018-09-30T05:58:19.885Z,7.83
2018-09-30T06:00:48.067Z,7.77
2018-09-30T06:03:16.323Z,7.03
2018-09-30T06:05:44.554Z,7.60
2018-09-30T06:08:12.755Z,7.57
2018-09-30T06:10:40.950Z,7.23
2018-09-30T06:13:09.183Z,7.57
2018-09-30T06:15:37.577Z,7.30
2018-09-30T06:18:05.762Z,7.30
2018-09-30T06:20:33.978Z,8.10
2018-09-30T06:23:02.171Z,7.60
2018-09-30T06:25:30.608Z,7.53
2018-09-30T06:27:58.888Z,6.97
2018-09-30T06:30:27.091Z,7.40
2018-09-30T06:32:55.287Z,6.87
2018-09-30T06:35:23.464Z,7.20
2018-09-30T06:37:51.682Z,7.20
2018-09-30T06:40:19.898Z,7.60
2018-09-30T06:42:48.057Z,7.80
2018-09-30T06:45:16.317Z,7.23
2018-09-30T06:47:44.566Z,7.67
2018-09-30T06:50:12.746Z,7.60
2018-09-30T06:52:40.935Z,8.20
2018-09-30T06:55:09.132Z,7.30
2018-09-30T06:57:37.317Z,7.97
2018-09-30T07:00:05.493Z,8.20
2018-09-30T07:02:33.674Z,8.60
2018-09-30T07:05:01.939Z,8.30
2018-09-30T07:07:30.044Z,8.20
2018-09-30T07:09:58.223Z,7.70
2018-09-30T07:12:26.474Z,7.60
2018-09-30T07:14:54.655Z,7.70
2018-09-30T07:17:22.970Z,8.67
2018-09-30T07:19:51.159Z,7.60
2018-09-30T07:22:19.388Z,8.40
2018-09-30T07:24:47.562Z,8.13
2018-09-30T07:27:15.726Z,8.03
2018-09-30T07:29:43.919Z,8.90
2018-09-30T07:32:12.318Z,8.10
2018-09-30T07:34:40.506Z,7.70
2018-09-30T07:37:08.695Z,8.90
2018-09-30T07:39:37.444Z,8.30
2018-09-30T07:42:05.812Z,7.90
2018-09-30T07:44:34.051Z,7.73
2018-09-30T07:47:02.284Z,7.90
2018-09-30T07:49:30.772Z,8.50
2018-09-30T07:51:59.020Z,8.00
2018-09-30T07:54:27.241Z,8.03
2018-09-30T07:56:55.434Z,8.57
2018-09-30T07:59:23.635Z,9.27
2018-09-30T08:01:52.650Z,8.50
2018-09-30T08:04:20.871Z,8.27
2018-09-30T08:06:49.076Z,8.10
2018-09-30T08:09:17.330Z,8.37
2018-09-30T08:11:45.553Z,7.40
2018-09-30T08:14:13.766Z,7.90
2018-09-30T08:16:42.006Z,7.93
2018-09-30T08:19:10.166Z,7.97
2018-09-30T08:21:38.375Z,8.00
2018-09-30T08:24:06.640Z,7.00
2018-09-30T08:26:34.876Z,7.80
2018-09-30T08:29:03.199Z,7.07
2018-09-30T08:31:31.443Z,7.30
2018-09-30T08:34:00.508Z,7.47
2018-09-30T08:36:29.363Z,7.20
2018-09-30T08:38:59.945Z,6.93
2018-09-30T08:41:28.132Z,7.10
2018-09-30T08:43:59.407Z,7.40
2018-09-30T08:46:27.510Z,6.90
2018-09-30T08:48:55.992Z,6.97
2018-09-30T08:51:24.176Z,7.20
2018-09-30T08:53:53.115Z,7.43
2018-09-30T08:56:21.424Z,7.67
2018-09-30T08:58:49.627Z,6.97
2018-09-30T09:01:17.796Z,7.80
2018-09-30T09:03:46.122Z,7.10
2018-09-30T09:06:14.303Z,7.13
2018-09-30T09:08:42.463Z,7.17
2018-09-30T09:11:10.660Z,7.80
2018-09-30T09:13:38.839Z,7.23
2018-09-30T09:16:09.208Z,7.57
2018-09-30T09:18:37.380Z,7.30
2018-09-30T09:21:06.522Z,7.30
2018-09-30T09:23:34.723Z,7.30
2018-09-30T09:26:03.276Z,7.43
2018-09-30T09:28:31.456Z,7.20
2018-09-30T09:31:00.767Z,6.73
2018-09-30T09:33:28.991Z,7.20
2018-09-30T09:35:57.180Z,7.47
2018-09-30T09:38:25.393Z,6.10
2018-09-30T09:40:54.459Z,7.50
2018-09-30T09:43:22.790Z,7.50
2018-09-30T09:45:50.988Z,7.70
2018-09-30T09:48:20.339Z,7.50
2018-09-30T09:50:50.502Z,7.67
2018-09-30T09:53:18.667Z,7.30
2018-09-30T09:55:46.841Z,6.73
2018-09-30T09:58:15.028Z,7.70
2018-09-30T10:00:43.482Z,6.57
2018-09-30T10:03:12.087Z,7.40
2018-09-30T10:05:40.259Z,6.93
2018-09-30T10:08:08.593Z,7.43
2018-09-30T10:10:37.070Z,7.63
2018-09-30T10:13:05.271Z,7.70
2018-09-30T10:15:33.431Z,7.50
2018-09-30T10:18:01.624Z,7.70
2018-09-30T10:20:29.894Z,7.70
2018-09-30T10:22:58.110Z,7.47
2018-09-30T10:25:26.304Z,7.33
2018-09-30T10:27:54.591Z,7.60
2018-09-30T10:30:22.767Z,7.80
2018-09-30T10:32:50.963Z,7.40
2018-09-30T10:35:19.140Z,6.87
2018-09-30T10:37:47.363Z,8.67
2018-09-30T10:40:15.580Z,7.50
2018-09-30T10:42:43.785Z,7.50
2018-09-30T10:45:13.075Z,7.63
2018-09-30T10:47:41.242Z,7.60
2018-09-30T10:50:09.536Z,8.10
2018-09-30T10:52:37.695Z,7.20
2018-09-30T10:55:05.917Z,7.80
2018-09-30T10:57:34.140Z,7.70
2018-09-30T11:00:02.584Z,7.63
2018-09-30T11:02:30.776Z,9.00
2018-09-30T11:04:58.971Z,8.17
2018-09-30T11:07:27.850Z,8.63
2018-09-30T11:09:56.034Z,8.40
2018-09-30T11:12:24.677Z,8.77
2018-09-30T11:14:53.103Z,8.70
2018-09-30T11:17:21.372Z,8.47
2018-09-30T11:19:49.562Z,8.30
2018-09-30T11:22:17.836Z,8.40
2018-09-30T11:24:46.095Z,8.30
2018-09-30T11:27:14.339Z,8.70
2018-09-30T11:29:42.683Z,8.93
2018-09-30T11:32:10.991Z,8.00
2018-09-30T11:34:39.403Z,9.00
2018-09-30T11:37:07.678Z,8.20
2018-09-30T11:39:36.025Z,8.80
2018-09-30T11:42:04.355Z,7.87
2018-09-30T11:44:32.674Z,7.80
2018-09-30T11:47:01.126Z,8.77
2018-09-30T11:49:31.102Z,8.80
2018-09-30T11:52:00.375Z,8.73
2018-09-30T11:54:28.559Z,8.93
2018-09-30T11:56:56.779Z,7.70
2018-09-30T11:59:24.959Z,8.00
2018-09-30T12:01:53.163Z,8.63
2018-09-30T12:04:21.416Z,8.20
2018-09-30T12:06:49.619Z,9.00
2018-09-30T12:09:17.875Z,7.87
2018-09-30T12:11:46.070Z,8.27
2018-09-30T12:14:14.296Z,8.60
2018-09-30T12:16:42.510Z,8.00
2018-09-30T12:19:10.719Z,8.00
2018-09-30T12:21:39.192Z,7.63
2018-09-30T12:24:07.446Z,8.30
2018-09-30T12:26:35.894Z,7.50
2018-09-30T12:29:04.337Z,8.50
2018-09-30T12:31:32.535Z,7.80
2018-09-30T12:34:06.700Z,8.03
2018-09-30T12:36:34.985Z,8.23
2018-09-30T12:39:05.541Z,7.70
2018-09-30T12:41:33.728Z,7.17
2018-09-30T12:44:01.932Z,8.13
2018-09-30T12:46:30.145Z,7.60
2018-09-30T12:48:58.378Z,7.07
2018-09-30T12:51:26.690Z,7.80
2018-09-30T12:53:54.884Z,7.20
2018-09-30T12:56:23.216Z,7.47
2018-09-30T12:58:51.420Z,7.73
2018-09-30T13:01:19.655Z,7.17
2018-09-30T13:03:47.850Z,6.30
2018-09-30T13:06:16.114Z,7.13
2018-09-30T13:08:44.334Z,7.23
2018-09-30T13:11:12.532Z,7.00
2018-09-30T13:13:40.871Z,7.30
2018-09-30T13:16:10.187Z,8.40
2018-09-30T13:18:38.379Z,7.53
2018-09-30T13:21:07.336Z,8.03
2018-09-30T13:23:35.775Z,7.73
2018-09-30T13:26:04.319Z,8.00
2018-09-30T13:28:32.510Z,8.30
2018-09-30T13:31:01.266Z,7.87
2018-09-30T13:33:29.688Z,8.90
2018-09-30T13:35:58.115Z,8.40
2018-09-30T13:38:27.768Z,8.60
2018-09-30T13:40:56.569Z,9.83
2018-09-30T13:43:24.847Z,8.50
2018-09-30T13:45:54.280Z,9.43
2018-09-30T13:48:22.535Z,10.43
2018-09-30T13:50:51.155Z,9.20
2018-09-30T13:53:20.092Z,8.40
2018-09-30T13:55:49.451Z,8.53
2018-09-30T13:58:17.812Z,8.83
2018-09-30T14:00:46.007Z,9.10
2018-09-30T14:03:14.284Z,9.67
2018-09-30T14:05:42.484Z,9.27
2018-09-30T14:08:10.675Z,8.80
2018-09-30T14:10:39.207Z,8.33
2018-09-30T14:13:08.227Z,9.00
2018-09-30T14:15:36.419Z,8.90
2018-09-30T14:18:04.595Z,8.50
2018-09-30T14:20:32.852Z,9.77
2018-09-30T14:23:01.113Z,8.57
2018-09-30T14:25:30.715Z,9.20
2018-09-30T14:27:59.625Z,8.90
2018-09-30T14:30:27.900Z,7.80
2018-09-30T14:32:57.315Z,8.37
2018-09-30T14:35:25.534Z,7.60
2018-09-30T14:37:54.431Z,7.83
2018-09-30T14:40:22.742Z,8.50
2018-09-30T14:42:52.221Z,7.47
2018-09-30T14:45:20.495Z,7.60
2018-09-30T14:47:48.783Z,7.27
2018-09-30T14:50:18.232Z,8.00
2018-09-30T14:52:47.830Z,6.87
2018-09-30T14:55:16.313Z,7.67
2018-09-30T14:57:44.515Z,7.27
2018-09-30T15:00:12.757Z,7.63
2018-09-30T15:02:41.537Z,7.37
2018-09-30T15:05:09.719Z,7.93
2018-09-30T15:07:38.023Z,8.63
2018-09-30T15:10:06.248Z,8.43
2018-09-30T15:12:37.307Z,8.10
2018-09-30T15:15:07.295Z,8.10
2018-09-30T15:17:35.627Z,7.63
2018-09-30T15:20:04.083Z,7.90
2018-09-30T15:22:32.371Z,6.90
2018-09-30T15:25:00.839Z,8.20
2018-09-30T15:27:29.504Z,7.10
2018-09-30T15:29:57.670Z,7.80
2018-09-30T15:32:25.935Z,7.53
2018-09-30T15:34:54.106Z,7.97
2018-09-30T15:37:22.543Z,8.03
2018-09-30T15:39:50.726Z,7.67
2018-09-30T15:42:19.066Z,7.57
2018-09-30T15:44:47.256Z,7.50
2018-09-30T15:47:15.583Z,7.23
2018-09-30T15:49:44.095Z,7.20
2018-09-30T15:52:12.362Z,7.30
2018-09-30T15:54:41.275Z,7.30
2018-09-30T15:57:09.786Z,6.53
2018-09-30T15:59:38.135Z,6.90
2018-09-30T16:02:07.348Z,6.23
2018-09-30T16:04:35.864Z,6.90
2018-09-30T16:07:04.901Z,6.40
2018-09-30T16:09:33.116Z,7.57
2018-09-30T16:12:01.411Z,7.07
2018-09-30T16:14:29.664Z,7.20
2018-09-30T16:16:57.960Z,6.70
2018-09-30T16:19:27.121Z,6.70
2018-09-30T16:21:55.484Z,6.60
2018-09-30T16:24:23.780Z,6.70
2018-09-30T16:26:52.539Z,6.63
2018-09-30T16:29:22.326Z,8.13
2018-09-30T16:31:50.885Z,7.13
2018-09-30T16:34:19.686Z,6.00
2018-09-30T16:36:49.443Z,6.87
2018-09-30T16:39:17.858Z,6.13
2018-09-30T16:41:46.343Z,6.87
2018-09-30T16:44:16.300Z,6.50
2018-09-30T16:46:45.189Z,7.03
2018-09-30T16:49:13.568Z,6.80
2018-09-30T16:51:42.435Z,7.30
2018-09-30T16:54:10.914Z,6.43
2018-09-30T16:56:39.247Z,7.30
2018-09-30T16:59:07.452Z,7.17
2018-09-30T17:01:37.748Z,7.27
2018-09-30T17:04:06.173Z,7.40
2018-09-30T17:06:35.367Z,7.17
2018-09-30T17:09:05.571Z,6.57
2018-09-30T17:11:34.027Z,6.37
2018-09-30T17:14:04.282Z,6.47
2018-09-30T17:16:32.710Z,6.00
2018-09-30T17:19:01.672Z,6.80
2018-09-30T17:21:30.559Z,7.10
2018-09-30T17:23:58.855Z,7.27
2018-09-30T17:26:27.232Z,6.63
2018-09-30T17:28:57.554Z,7.10
2018-09-30T17:31:26.575Z,7.60
2018-09-30T17:33:54.809Z,7.63
2018-09-30T17:36:22.987Z,7.40
2018-09-30T17:38:51.189Z,7.53
2018-09-30T17:41:19.387Z,7.13
2018-09-30T17:43:47.571Z,7.60
2018-09-30T17:46:15.747Z,8.47
2018-09-30T17:48:43.933Z,7.77
2018-09-30T17:51:12.134Z,7.80
2018-09-30T17:53:40.518Z,7.60
2018-09-30T17:56:08.888Z,7.40
2018-09-30T17:58:37.196Z,8.13
2018-09-30T18:01:05.403Z,8.10
2018-09-30T18:03:33.820Z,8.70
2018-09-30T18:06:02.031Z,9.47
2018-09-30T18:08:30.311Z,9.27
2018-09-30T18:10:59.259Z,9.40
2018-09-30T18:13:29.585Z,9.57
2018-09-30T18:15:57.908Z,9.30
2018-09-30T18:18:26.117Z,9.80
2018-09-30T18:20:54.443Z,9.93
2018-09-30T18:23:22.707Z,10.70
2018-09-30T18:25:52.098Z,11.00
2018-09-30T18:28:20.984Z,11.40
2018-09-30T18:30:50.337Z,10.20
2018-09-30T18:33:18.716Z,10.83
2018-09-30T18:35:46.890Z,9.53
2018-09-30T18:38:15.108Z,9.93
2018-09-30T18:40:48.210Z,10.20
2018-09-30T18:43:16.454Z,10.90
2018-09-30T18:45:45.147Z,10.10
2018-09-30T18:48:13.397Z,9.83
2018-09-30T18:50:42.110Z,9.70
2018-09-30T18:53:10.307Z,9.37
2018-09-30T18:55:38.490Z,10.10
2018-09-30T18:58:06.712Z,10.17
2018-09-30T19:00:35.038Z,10.80
2018-09-30T19:03:03.390Z,10.47
2018-09-30T19:05:31.642Z,11.10
2018-09-30T19:08:01.355Z,10.73
2018-09-30T19:10:29.530Z,11.83
2018-09-30T19:12:59.266Z,9.87
2018-09-30T19:15:28.536Z,9.70
2018-09-30T19:17:56.998Z,10.20
2018-09-30T19:20:25.939Z,9.73
2018-09-30T19:22:54.432Z,10.47
2018-09-30T19:25:22.659Z,9.50
2018-09-30T19:27:51.494Z,9.53
2018-09-30T19:30:21.028Z,9.73
2018-09-30T19:32:49.300Z,9.37
2018-09-30T19:35:17.592Z,10.43
2018-09-30T19:37:46.861Z,10.23
2018-09-30T19:40:15.160Z,10.77
2018-09-30T19:42:45.982Z,10.87
2018-09-30T19:45:14.808Z,10.37
2018-09-30T19:47:43.676Z,11.57
2018-09-30T19:50:11.990Z,10.70
2018-09-30T19:52:40.556Z,10.90
2018-09-30T19:55:08.886Z,10.97
2018-09-30T19:57:37.158Z,10.40
2018-09-30T20:00:05.433Z,11.30
2018-09-30T20:02:33.775Z,11.27
2018-09-30T20:05:03.066Z,10.97
2018-09-30T20:07:31.878Z,10.77
2018-09-30T20:10:00.791Z,11.30
2018-09-30T20:12:30.167Z,11.53
2018-09-30T20:14:58.403Z,11.60
2018-09-30T20:17:26.935Z,12.30
2018-09-30T20:19:55.210Z,12.57
2018-09-30T20:22:23.406Z,13.50
2018-09-30T20:24:53.297Z,14.77
2018-09-30T20:27:21.987Z,13.53
2018-09-30T20:29:51.000Z,12.73
2018-09-30T20:32:19.203Z,13.10
2018-09-30T20:34:47.420Z,13.57
2018-09-30T20:37:15.648Z,13.10
2018-09-30T20:39:43.871Z,13.40
2018-09-30T20:42:12.079Z,14.80
2018-09-30T20:44:40.304Z,14.00
2018-09-30T20:47:08.521Z,13.90
2018-09-30T20:49:36.702Z,14.00
2018-09-30T20:52:04.915Z,13.40
2018-09-30T20:54:33.123Z,13.40
2018-09-30T20:57:01.477Z,13.20
2018-09-30T20:59:29.663Z,13.93
2018-09-30T21:01:57.876Z,13.17
2018-09-30T21:04:26.060Z,14.10
2018-09-30T21:06:54.260Z,13.33
2018-09-30T21:09:23.007Z,13.47
2018-09-30T21:11:51.240Z,13.87
2018-09-30T21:14:19.429Z,13.67
2018-09-30T21:16:47.623Z,14.17
2018-09-30T21:19:15.831Z,14.20
2018-09-30T21:21:44.018Z,14.47
2018-09-30T21:24:12.212Z,14.57
2018-09-30T21:26:40.423Z,13.77
2018-09-30T21:29:08.623Z,12.90
2018-09-30T21:31:36.936Z,13.67
2018-09-30T21:34:05.160Z,13.37
2018-09-30T21:36:33.359Z,13.47
2018-09-30T21:39:01.577Z,13.03
2018-09-30T21:41:29.774Z,12.13
2018-09-30T21:43:57.989Z,12.80
2018-09-30T21:46:26.207Z,13.27
2018-09-30T21:48:54.811Z,13.13
2018-09-30T21:51:22.831Z,14.30
2018-09-30T21:53:51.023Z,13.73
2018-09-30T21:56:19.231Z,14.40
2018-09-30T21:58:47.416Z,14.67
2018-09-30T22:01:15.891Z,14.63
2018-09-30T22:03:44.027Z,14.60
2018-09-30T22:06:12.226Z,14.93
2018-09-30T22:08:40.416Z,14.90
2018-09-30T22:11:08.608Z,15.13
2018-09-30T22:13:36.807Z,15.83
2018-09-30T22:16:05.011Z,13.93
2018-09-30T22:18:33.209Z,15.37
2018-09-30T22:21:01.412Z,14.80
2018-09-30T22:23:29.608Z,14.60
2018-09-30T22:25:57.922Z,14.90
2018-09-30T22:28:26.120Z,14.20
2018-09-30T22:30:54.348Z,14.73
2018-09-30T22:33:22.538Z,14.63
2018-09-30T22:35:50.731Z,13.20
2018-09-30T22:38:18.933Z,13.10
2018-09-30T22:40:47.135Z,12.67
2018-09-30T22:43:15.352Z,14.37
2018-09-30T22:45:43.552Z,13.80
2018-09-30T22:48:11.765Z,14.50
2018-09-30T22:50:39.971Z,14.50
2018-09-30T22:53:08.218Z,14.03
2018-09-30T22:55:36.367Z,14.37
2018-09-30T22:58:04.605Z,13.90
2018-09-30T23:00:32.784Z,14.63
2018-09-30T23:03:00.994Z,13.80
2018-09-30T23:05:29.182Z,13.60
2018-09-30T23:07:57.366Z,15.27
2018-09-30T23:10:25.587Z,15.00
2018-09-30T23:12:53.810Z,14.87
2018-09-30T23:15:22.020Z,15.20
2018-09-30T23:17:50.284Z,13.83
2018-09-30T23:20:19.092Z,15.33
2018-09-30T23:22:47.681Z,15.40
2018-09-30T23:25:15.939Z,14.43
2018-09-30T23:27:44.227Z,15.17
2018-09-30T23:30:12.613Z,13.90
2018-09-30T23:32:40.827Z,13.63
2018-09-30T23:35:09.052Z,14.27
2018-09-30T23:37:37.259Z,15.17
2018-09-30T23:40:05.816Z,13.87
2018-09-30T23:42:34.016Z,14.27
2018-09-30T23:45:02.256Z,14.70
2018-09-30T23:47:30.474Z,13.33
2018-09-30T23:49:58.816Z,14.37
2018-09-30T23:52:27.027Z,14.30
2018-09-30T23:54:55.235Z,12.60
2018-09-30T23:57:23.447Z,14.33
2018-09-30T23:59:51.636Z,13.60
